This is the latest recevied weather packets stored in our database for station/object KC7WRB. If no packets are shown the sender has not sent any weather packets the latest 10 day(s).
| Time | Temp. | Humidity | Pressure | Rain* | Wind** | Luminosity | Snow |
|---|---|---|---|---|---|---|---|
| 1777631758 | 4.44° C | 49% | 1018.7 hPa | 0 mm | - | 0 W/m² | - |
| 1777631455 | 4.44° C | 48% | 1018.9 hPa | 0 mm | - | 0 W/m² | - |
| 1777631152 | 4.44° C | 48% | 1018.7 hPa | 0 mm | - | 0 W/m² | - |
| 1777630850 | 4.44° C | 49% | 1018.9 hPa | 0 mm | - | 0 W/m² | - |
| 1777630545 | 4.44° C | 48% | 1018.7 hPa | 0 mm | - | 0 W/m² | - |
| 1777630242 | 3.89° C | 49% | 1018.5 hPa | 0 mm | - | 0 W/m² | - |
| 1777629940 | 3.89° C | 48% | 1018.7 hPa | 0 mm | - | 0 W/m² | - |
| 1777629638 | 3.89° C | 48% | 1018.7 hPa | 0 mm | - | 0 W/m² | - |
| 1777629334 | 3.89° C | 48% | 1018.9 hPa | 0 mm | - | 0 W/m² | - |
| 1777629030 | 3.89° C | 49% | 1018.6 hPa | 0 mm | - | 0 W/m² | - |
| 1777628727 | 3.89° C | 53% | 1018.5 hPa | 0 mm | - | 0 W/m² | - |
| 1777628423 | 3.89° C | 54% | 1018.6 hPa | 0 mm | - | 0 W/m² | - |
| 1777628120 | 3.89° C | 53% | 1018.7 hPa | 0 mm | - | 0 W/m² | - |
| 1777627815 | 4.44° C | 51% | 1018.7 hPa | 0 mm | - | 0 W/m² | - |
| 1777627514 | 4.44° C | 51% | 1018.9 hPa | 0 mm | - | 0 W/m² | - |
| 1777627209 | 4.44° C | 52% | 1018.6 hPa | 0 mm | - | 0 W/m² | - |
| 1777626906 | 5° C | 52% | 1018.7 hPa | 0 mm | - | 0 W/m² | - |
| 1777626603 | 5.56° C | 51% | 1018.6 hPa | 0 mm | - | 0 W/m² | - |
| 1777626303 | 5° C | 51% | 1018.9 hPa | 0 mm | - | 0 W/m² | - |
| 1777626002 | 3.89° C | 56% | 1018.7 hPa | 0 mm | - | 0 W/m² | - |
| 1777625697 | 3.89° C | 57% | 1018.6 hPa | 0 mm | - | 0 W/m² | - |
| 1777625392 | 3.33° C | 59% | 1018.5 hPa | 0 mm | - | 0 W/m² | - |
| 1777625089 | 3.33° C | 59% | 1018.7 hPa | 0 mm | - | 0 W/m² | - |
| 1777624785 | 3.89° C | 57% | 1018.9 hPa | 0 mm | - | 0 W/m² | - |
| 1777624481 | 5° C | 55% | 1018.9 hPa | 0 mm | - | 0 W/m² | - |
* Rain latest hour (hover to see other rain measurements)
** Current wind speed in m/s (hover to see current wind gust speed)